Time;durP1;ratioP1;P1;durP2;ratioP2;P2;SDS_P1;SDS_P2;PMS_P1;PMS_P2;Temp;Humidity;BMP_temperature;BMP_pressure;BME280_temperature;BME280_humidity;BME280_pressure;Samples;Min_cycle;Max_cycle;Signal;HPM_P1;HPM_P2
2021/08/22 00:01:18;;;;;;;4.38;2.40;;;;;;;14.49;76.23;101468.47;5089761;28;20330;-70
2021/08/22 00:03:43;;;;;;;5.17;2.20;;;;;;;14.50;75.99;101458.56;5089836;28;20088;-70
2021/08/22 00:06:09;;;;;;;5.22;2.10;;;;;;;14.45;76.41;101463.59;5088354;28;20034;-70
2021/08/22 00:08:45;;;;;;;4.60;1.90;;;;;;;14.38;76.39;101468.81;5071761;28;20040;-70
2021/08/22 00:11:10;;;;;;;3.45;2.42;;;;;;;14.36;76.18;101468.97;5089551;28;20040;-70
2021/08/22 00:13:36;;;;;;;4.00;2.40;;;;;;;14.38;76.18;101465.28;5088679;28;20035;-70
2021/08/22 00:16:02;;;;;;;2.37;2.10;;;;;;;14.40;76.21;101463.25;5088012;28;20293;-70
2021/08/22 00:18:28;;;;;;;2.83;1.90;;;;;;;14.41;75.82;101464.94;5089325;28;20020;-70
2021/08/22 00:20:54;;;;;;;5.45;1.75;;;;;;;14.42;74.90;101466.59;5088447;28;20035;-70
2021/08/22 00:23:19;;;;;;;2.20;2.00;;;;;;;14.40;75.75;101455.19;5088089;28;20517;-70
2021/08/22 00:25:45;;;;;;;4.30;1.97;;;;;;;14.36;75.28;101460.91;5088120;28;20040;-70
2021/08/22 00:28:10;;;;;;;5.53;2.53;;;;;;;14.28;75.60;101463.63;5088055;28;20024;-70
2021/08/22 00:30:36;;;;;;;7.90;2.27;;;;;;;14.30;75.05;101458.91;5088305;28;20354;-70
2021/08/22 00:33:02;;;;;;;2.67;1.75;;;;;;;14.28;75.16;101460.94;5088837;28;20124;-70
2021/08/22 00:35:27;;;;;;;3.87;2.00;;;;;;;14.23;75.54;101457.91;5088154;28;20068;-70
2021/08/22 00:37:53;;;;;;;4.03;1.87;;;;;;;14.30;74.60;101458.91;5087579;28;20024;-69
2021/08/22 00:40:19;;;;;;;;;;;;;;;14.32;74.80;101454.19;5089417;28;20476;-69
2021/08/22 00:42:46;;;;;;;2.25;1.75;;;;;;;14.24;75.29;101454.22;5088740;28;19908;-69
2021/08/22 00:45:13;;;;;;;4.22;2.30;;;;;;;14.21;75.12;101445.66;5088682;28;20051;-69
2021/08/22 00:47:46;;;;;;;4.45;1.63;;;;;;;14.19;75.64;101445.84;5070587;28;20020;-69
2021/08/22 00:50:16;;;;;;;13.85;2.00;;;;;;;14.11;76.63;101445.81;5088948;28;20036;-72
2021/08/22 00:52:42;;;;;;;3.63;2.42;;;;;;;14.03;76.39;101448.53;5088409;28;20040;-72
2021/08/22 00:55:08;;;;;;;2.80;2.20;;;;;;;13.99;76.67;101441.81;5088614;28;20046;-72
2021/08/22 00:57:34;;;;;;;1.88;1.77;;;;;;;13.99;76.24;101434.59;5088004;28;20059;-69
2021/08/22 01:00:01;;;;;;;2.97;2.20;;;;;;;14.02;58.69;101438.78;5087572;28;20055;-69
2021/08/22 01:02:30;;;;;;;4.07;1.90;;;;;;;13.98;60.15;101443.66;5088476;28;20036;-69
2021/08/22 01:05:17;;;;;;;2.80;1.80;;;;;;;13.98;60.51;101440.97;5088334;28;20035;-69
2021/08/22 01:07:54;;;;;;;5.50;2.00;;;;;;;13.99;62.03;101439.97;5087311;28;20035;-72
2021/08/22 01:10:23;;;;;;;3.67;1.80;;;;;;;13.96;64.81;101439.47;5088355;28;20097;-72
2021/08/22 01:12:58;;;;;;;4.45;2.28;;;;;;;13.94;64.70;101443.13;5088458;28;20041;-72
2021/08/22 01:15:25;;;;;;;4.90;2.92;;;;;;;13.99;76.07;101436.44;5087127;28;20040;-72
2021/08/22 01:17:54;;;;;;;8.48;2.13;;;;;;;13.98;76.68;101434.75;5088283;28;20028;-69
2021/08/22 01:20:49;;;;;;;4.15;1.60;;;;;;;13.97;76.25;101433.91;5070408;28;20054;-70
2021/08/22 01:23:15;;;;;;;2.00;1.70;;;;;;;13.94;76.65;101427.03;5087332;28;20165;-69
2021/08/22 01:25:43;;;;;;;3.30;1.92;;;;;;;13.96;76.99;101428.72;5086843;28;20422;-70
2021/08/22 01:28:10;;;;;;;2.10;1.35;;;;;;;13.98;76.83;101434.75;5089249;28;20044;-69
2021/08/22 01:30:41;;;;;;;3.55;1.70;;;;;;;13.90;76.90;101427.53;5074570;28;20043;-70
2021/08/22 01:33:15;;;;;;;4.55;2.00;;;;;;;13.88;77.53;101430.41;5092497;28;20082;-71
2021/08/22 01:35:42;;;;;;;8.23;2.58;;;;;;;13.90;76.99;101423.00;5091038;28;20158;-72
2021/08/22 01:38:08;;;;;;;2.15;1.60;;;;;;;13.85;77.54;101427.22;5092482;28;20016;-72
2021/08/22 01:40:34;;;;;;;4.22;1.63;;;;;;;13.75;77.74;101421.19;5092230;28;20085;-72
2021/08/22 01:43:02;;;;;;;2.67;1.73;;;;;;;13.84;77.79;101423.69;5091399;28;20028;-72
2021/08/22 01:45:28;;;;;;;1.95;1.73;;;;;;;13.81;78.14;101421.31;5091651;28;20039;-73
2021/08/22 01:47:54;;;;;;;4.45;2.10;;;;;;;13.81;78.31;101413.28;5091024;28;20050;-72
2021/08/22 01:50:23;;;;;;;2.53;1.97;;;;;;;13.81;78.37;101418.63;5091069;28;20489;-70
2021/08/22 01:52:54;;;;;;;3.13;2.00;;;;;;;13.82;78.12;101420.34;5091810;28;20040;-72
2021/08/22 01:55:20;;;;;;;2.53;1.70;;;;;;;13.81;78.77;101418.63;5091724;28;20039;-72
2021/08/22 01:57:45;;;;;;;2.97;2.20;;;;;;;13.79;78.17;101414.44;5091314;28;20496;-72
2021/08/22 02:00:12;;;;;;;2.93;2.23;;;;;;;13.81;78.46;101410.59;5092068;28;20096;-72
2021/08/22 02:02:47;;;;;;;1.73;1.42;;;;;;;13.79;78.47;101415.31;5091600;28;20032;-70
2021/08/22 02:05:14;;;;;;;2.60;2.05;;;;;;;13.75;78.93;101400.53;5073839;28;20407;-69
2021/08/22 02:07:39;;;;;;;4.20;1.90;;;;;;;13.73;79.23;101400.69;5091418;28;20024;-70
2021/08/22 02:10:06;;;;;;;2.05;1.48;;;;;;;13.71;79.45;101407.25;5091968;28;20590;-70
2021/08/22 02:12:33;;;;;;;1.63;1.50;;;;;;;13.70;79.95;101408.25;5091560;28;20105;-70
2021/08/22 02:15:12;;;;;;;7.07;2.55;;;;;;;13.70;79.34;101405.56;5091616;28;20044;-70
2021/08/22 02:17:44;;;;;;;3.13;1.48;;;;;;;13.71;79.84;101401.88;5091741;28;20430;-72
2021/08/22 02:20:09;;;;;;;2.72;1.60;;;;;;;13.79;79.55;101403.72;5090658;28;20411;-70
2021/08/22 02:22:35;;;;;;;5.00;2.00;;;;;;;13.69;79.56;101395.84;5091397;28;20031;-70
2021/08/22 02:25:02;;;;;;;1.50;1.23;;;;;;;13.64;79.50;101382.09;5091546;28;20027;-70
2021/08/22 02:27:29;;;;;;;9.18;1.95;;;;;;;13.66;79.47;101388.13;5090141;28;20024;-70
2021/08/22 02:29:55;;;;;;;3.45;1.60;;;;;;;13.70;78.71;101392.16;5090485;28;20040;-70
2021/08/22 02:32:22;;;;;;;3.70;2.10;;;;;;;13.66;79.25;101378.22;5091158;28;20035;-70
2021/08/22 02:34:47;;;;;;;2.20;1.70;;;;;;;13.66;79.61;101382.75;5091189;28;20115;-70
2021/08/22 02:37:13;;;;;;;2.10;1.60;;;;;;;13.64;80.08;101385.59;5089993;28;20016;-70
2021/08/22 02:39:38;;;;;;;4.10;1.57;;;;;;;13.65;80.03;101375.69;5091360;28;20035;-70
2021/08/22 02:42:05;;;;;;;6.17;1.70;;;;;;;13.65;80.22;101378.38;5091089;28;20020;-70
2021/08/22 02:44:30;;;;;;;;;;;;;;;13.66;80.16;101380.06;5090383;28;20042;-70
2021/08/22 02:46:55;;;;;;;;;;;;;;;13.64;79.29;101380.22;5091489;28;19915;-70
2021/08/22 02:49:20;;;;;;;2.63;1.80;;;;;;;13.67;79.70;101379.06;5090799;28;19923;-70
2021/08/22 02:51:46;;;;;;;3.23;2.00;;;;;;;13.64;80.07;101374.03;5091076;28;20034;-70
2021/08/22 02:54:11;;;;;;;2.27;1.67;;;;;;;13.72;80.30;101377.56;5090747;28;20067;-70
2021/08/22 02:56:36;;;;;;;5.37;2.00;;;;;;;13.69;79.92;101375.19;5090683;28;20039;-70
2021/08/22 02:59:02;;;;;;;2.37;2.17;;;;;;;13.67;79.38;101368.31;5090640;28;20097;-70
2021/08/22 03:01:27;;;;;;;3.63;1.97;;;;;;;13.71;79.98;101373.19;5090862;28;20064;-70
2021/08/22 03:03:52;;;;;;;2.17;1.63;;;;;;;13.69;80.30;101366.31;5090556;28;20036;-70
2021/08/22 03:06:18;;;;;;;3.90;1.83;;;;;;;13.72;80.00;101366.84;5089500;28;20043;-70
2021/08/22 03:08:43;;;;;;;2.73;1.73;;;;;;;13.78;80.12;101372.53;5089668;28;20500;-70
2021/08/22 03:11:09;;;;;;;2.23;2.03;;;;;;;13.77;79.01;101371.69;5090785;28;20115;-70
2021/08/22 03:13:34;;;;;;;4.00;1.80;;;;;;;13.87;78.60;101377.72;5090399;28;20050;-70
2021/08/22 03:15:59;;;;;;;2.10;1.73;;;;;;;13.88;78.35;101366.00;5089351;28;20192;-70
2021/08/22 03:18:25;;;;;;;4.57;2.87;;;;;;;13.88;78.24;101363.31;5089679;28;20101;-72
2021/08/22 03:20:50;;;;;;;2.40;1.87;;;;;;;13.93;78.26;101358.25;5072580;28;20047;-70
2021/08/22 03:23:15;;;;;;;3.13;1.93;;;;;;;13.94;78.23;101351.88;5089520;28;20032;-69
2021/08/22 03:25:41;;;;;;;6.37;2.23;;;;;;;13.94;78.47;101354.56;5089141;28;20057;-70
2021/08/22 03:28:06;;;;;;;4.00;1.67;;;;;;;13.93;78.63;101352.91;5090042;28;20354;-70
2021/08/22 03:30:31;;;;;;;3.10;2.10;;;;;;;13.97;78.68;101349.84;5090187;28;20116;-70
2021/08/22 03:32:57;;;;;;;2.40;1.67;;;;;;;13.93;78.98;101350.22;5090103;28;20043;-70
2021/08/22 03:35:22;;;;;;;5.73;2.03;;;;;;;13.97;78.50;101352.53;5089046;28;20047;-70
2021/08/22 03:37:48;;;;;;;2.90;2.60;;;;;;;13.97;78.60;101347.19;5089980;28;20457;-70
2021/08/22 03:40:13;;;;;;;3.20;1.90;;;;;;;14.03;78.07;101341.13;5089985;28;20465;-70
2021/08/22 03:42:39;;;;;;;3.72;2.13;;;;;;;14.03;77.67;101347.34;5089842;28;20084;-70
2021/08/22 03:45:05;;;;;;;3.33;1.63;;;;;;;14.10;77.20;101339.44;5088600;28;20093;-72
2021/08/22 03:47:31;;;;;;;2.78;2.08;;;;;;;14.06;77.70;101340.78;5088654;28;20432;-72
2021/08/22 03:49:56;;;;;;;2.57;1.67;;;;;;;13.99;77.74;101331.75;5088327;28;20040;-72
2021/08/22 03:52:21;;;;;;;7.17;3.00;;;;;;;14.10;77.50;101334.91;5089754;28;20064;-70
2021/08/22 03:54:47;;;;;;;3.03;1.97;;;;;;;14.04;77.89;101332.88;5088807;28;20047;-69
2021/08/22 03:57:12;;;;;;;4.70;2.00;;;;;;;14.12;77.49;101340.94;5088734;28;20031;-70
2021/08/22 03:59:37;;;;;;;2.23;1.83;;;;;;;14.08;77.84;101338.78;5088909;28;20020;-70
2021/08/22 04:02:03;;;;;;;10.33;2.03;;;;;;;14.11;77.90;101338.41;5088336;28;20040;-69
2021/08/22 04:04:49;;;;;;;3.90;2.03;;;;;;;14.09;77.69;101340.44;5089438;28;20201;-70
2021/08/22 04:07:14;;;;;;;5.10;1.60;;;;;;;14.07;78.42;101332.56;5089157;28;20111;-70
2021/08/22 04:09:39;;;;;;;7.53;1.77;;;;;;;14.07;77.74;101329.03;5088706;28;20877;-70
2021/08/22 04:12:05;;;;;;;4.00;1.23;;;;;;;14.17;77.25;101327.00;5088465;28;20071;-70
2021/08/22 04:14:31;;;;;;;3.42;2.10;;;;;;;14.18;76.94;101335.91;5089427;28;20043;-70
2021/08/22 04:16:56;;;;;;;2.60;1.80;;;;;;;14.12;77.31;101329.38;5088099;28;20055;-70
2021/08/22 04:19:21;;;;;;;2.17;1.50;;;;;;;14.17;77.89;101334.22;5089399;28;20686;-70
2021/08/22 04:21:47;;;;;;;4.50;1.93;;;;;;;14.22;77.78;101335.38;5089138;28;20059;-70
2021/08/22 04:24:12;;;;;;;2.83;1.70;;;;;;;14.21;77.88;101328.34;5071343;28;20038;-70
2021/08/22 04:26:39;;;;;;;4.50;2.10;;;;;;;14.24;77.60;101330.69;5088838;28;20032;-70
2021/08/22 04:29:05;;;;;;;1.70;1.35;;;;;;;14.24;77.64;101333.38;5088293;28;20579;-72
2021/08/22 04:31:30;;;;;;;2.10;1.60;;;;;;;14.21;77.64;101328.34;5088876;28;20111;-70
2021/08/22 04:33:55;;;;;;;2.30;1.70;;;;;;;14.25;77.18;101334.19;5088930;28;20028;-70
2021/08/22 04:36:21;;;;;;;2.30;1.50;;;;;;;14.27;77.20;101333.00;5087698;28;20031;-70
2021/08/22 04:38:46;;;;;;;2.50;1.80;;;;;;;14.29;76.72;101338.22;5089036;28;20081;-72
2021/08/22 04:41:19;;;;;;;2.17;1.60;;;;;;;14.33;76.60;101332.34;5089059;28;20055;-70
2021/08/22 04:43:45;;;;;;;2.30;1.60;;;;;;;14.43;75.99;101326.75;5088724;28;20086;-70
2021/08/22 04:46:10;;;;;;;1.80;1.52;;;;;;;14.41;76.07;101331.47;5087341;28;20060;-70
2021/08/22 04:48:35;;;;;;;2.83;1.87;;;;;;;14.47;75.94;101337.97;5087677;28;20039;-70
2021/08/22 04:51:01;;;;;;;4.10;2.67;;;;;;;14.49;75.87;101333.25;5071086;28;20040;-70
2021/08/22 04:53:26;;;;;;;4.90;2.37;;;;;;;14.55;75.69;101324.56;5087624;28;20063;-70
2021/08/22 04:55:52;;;;;;;2.93;2.17;;;;;;;14.51;75.25;101328.56;5088382;28;20100;-70
2021/08/22 04:58:17;;;;;;;2.73;1.87;;;;;;;14.52;76.13;101335.63;5087048;28;20111;-70
2021/08/22 05:00:42;;;;;;;2.27;1.97;;;;;;;14.55;76.24;101327.25;5087700;28;20119;-70
2021/08/22 05:03:08;;;;;;;3.43;2.30;;;;;;;14.54;75.64;101330.94;5086595;28;20047;-70
2021/08/22 05:05:33;;;;;;;6.27;2.20;;;;;;;14.62;76.65;101335.44;5088531;28;20031;-70
2021/08/22 05:07:58;;;;;;;3.60;2.47;;;;;;;14.67;76.33;101325.84;5088271;28;20106;-70
2021/08/22 05:10:24;;;;;;;4.37;2.30;;;;;;;14.61;75.58;101331.06;5088455;28;20063;-70
2021/08/22 05:12:50;;;;;;;3.30;2.20;;;;;;;14.69;76.45;101331.88;5088471;28;20083;-70
2021/08/22 05:15:15;;;;;;;3.53;2.13;;;;;;;14.64;76.81;101334.25;5087213;28;20043;-70
2021/08/22 05:17:40;;;;;;;2.47;2.00;;;;;;;14.68;77.55;101329.34;5088293;28;20032;-70
2021/08/22 05:20:07;;;;;;;3.17;2.67;;;;;;;14.72;76.89;101334.19;5087344;28;20047;-70
2021/08/22 05:22:32;;;;;;;;;;;;;;;14.79;76.85;101331.66;5071081;28;20032;-70
2021/08/22 05:24:57;;;;;;;;;;;;;;;14.72;77.15;101334.19;5070790;28;19923;-70
2021/08/22 05:27:24;;;;;;;2.30;1.90;;;;;;;14.74;78.02;101336.72;5088234;28;19962;-69
2021/08/22 05:29:49;;;;;;;7.15;1.80;;;;;;;14.76;77.96;101334.69;5088037;28;20032;-70
2021/08/22 05:32:14;;;;;;;3.03;2.23;;;;;;;14.73;77.85;101333.22;5070361;28;20741;-70
2021/08/22 05:34:40;;;;;;;4.60;2.83;;;;;;;14.81;77.92;101334.19;5088056;28;20517;-70
2021/08/22 05:37:05;;;;;;;6.97;2.40;;;;;;;14.83;77.96;101329.47;5087118;28;20668;-69
2021/08/22 05:39:31;;;;;;;4.67;2.20;;;;;;;14.89;77.72;101326.06;5088174;28;20040;-69
2021/08/22 05:41:56;;;;;;;5.33;2.20;;;;;;;14.95;78.24;101320.81;5087220;28;20044;-69
2021/08/22 05:44:21;;;;;;;3.90;2.00;;;;;;;14.96;77.25;101321.63;5086800;28;20056;-70
2021/08/22 05:46:47;;;;;;;3.07;1.73;;;;;;;15.05;77.57;101331.34;5087899;28;20067;-70
2021/08/22 05:49:12;;;;;;;2.30;2.10;;;;;;;15.05;77.60;101331.34;5088253;28;20446;-70
2021/08/22 05:51:37;;;;;;;8.80;2.13;;;;;;;15.11;77.82;101335.19;5087999;28;20040;-69
2021/08/22 05:54:03;;;;;;;2.67;1.83;;;;;;;15.10;77.83;101333.50;5087161;28;20046;-69
2021/08/22 05:56:28;;;;;;;2.73;1.80;;;;;;;15.01;78.64;101334.56;5087033;28;20766;-69
2021/08/22 05:58:53;;;;;;;2.50;1.80;;;;;;;15.08;78.95;101336.38;5087118;28;20049;-70
2021/08/22 06:01:19;;;;;;;2.63;1.83;;;;;;;15.08;79.15;101335.56;5087974;28;20039;-69
2021/08/22 06:03:44;;;;;;;3.40;1.97;;;;;;;15.09;79.35;101342.59;5088128;28;20038;-70
2021/08/22 06:06:10;;;;;;;2.97;1.70;;;;;;;15.18;78.74;101347.72;5086680;28;20070;-70
2021/08/22 06:08:36;;;;;;;5.53;2.13;;;;;;;15.20;78.06;101351.09;5087993;28;20040;-72
2021/08/22 06:11:01;;;;;;;2.13;1.60;;;;;;;15.30;77.18;101339.25;5087843;28;20035;-72
2021/08/22 06:13:27;;;;;;;3.33;1.30;;;;;;;15.35;75.69;101348.44;5087636;28;20499;-72
2021/08/22 06:15:52;;;;;;;4.23;1.43;;;;;;;15.31;74.23;101339.09;5073396;28;20040;-72
2021/08/22 06:18:18;;;;;;;4.27;2.10;;;;;;;15.45;74.30;101342.81;5091656;28;20028;-72
2021/08/22 06:20:46;;;;;;;3.13;1.60;;;;;;;15.56;74.44;101345.09;5091769;28;20096;-72
2021/08/22 06:23:12;;;;;;;3.40;1.65;;;;;;;15.61;74.43;101349.94;5091329;28;20075;-72
2021/08/22 06:25:37;;;;;;;1.73;1.53;;;;;;;15.77;74.06;101354.38;5090963;28;20508;-72
2021/08/22 06:28:03;;;;;;;1.70;1.30;;;;;;;15.86;73.76;101355.97;5090725;28;20032;-72
2021/08/22 06:30:28;;;;;;;2.03;1.27;;;;;;;16.10;73.45;101359.47;5090526;28;20304;-72
2021/08/22 06:32:54;;;;;;;2.10;1.23;;;;;;;16.16;71.99;101346.09;5089968;28;20286;-73
2021/08/22 06:35:19;;;;;;;2.13;1.40;;;;;;;16.27;71.23;101347.47;5091037;28;20032;-70
2021/08/22 06:37:45;;;;;;;4.37;1.40;;;;;;;16.38;71.13;101355.09;5090790;28;20035;-72
2021/08/22 06:40:11;;;;;;;2.23;1.13;;;;;;;16.58;70.16;101346.47;5091174;28;20081;-72
2021/08/22 06:42:36;;;;;;;1.70;1.25;;;;;;;16.68;69.54;101349.69;5089963;28;20490;-72
2021/08/22 06:45:03;;;;;;;4.57;2.00;;;;;;;16.37;69.78;101342.66;5091109;28;20390;-72
2021/08/22 06:47:28;;;;;;;5.70;1.20;;;;;;;16.22;70.12;101341.81;5089919;28;20047;-72
2021/08/22 06:49:53;;;;;;;1.40;1.20;;;;;;;16.31;69.60;101354.19;5091270;28;20020;-72
2021/08/22 06:52:20;;;;;;;1.50;1.27;;;;;;;16.20;70.44;101357.31;5091025;28;20036;-72
2021/08/22 06:54:45;;;;;;;2.78;1.50;;;;;;;16.23;69.52;101347.03;5089766;28;20032;-72
2021/08/22 06:57:13;;;;;;;2.40;1.27;;;;;;;16.46;69.80;101335.31;5089152;28;20039;-69
2021/08/22 06:59:40;;;;;;;2.50;1.70;;;;;;;16.25;70.16;101344.16;5089608;28;20434;-72
2021/08/22 07:02:06;;;;;;;;;;;;;;;16.19;70.48;101344.88;5091296;28;20518;-72
2021/08/22 07:04:31;;;;;;;;;;;;;;;16.40;70.94;101350.38;5090115;28;19962;-72
2021/08/22 07:06:56;;;;;;;5.97;1.47;;;;;;;16.36;70.93;101346.38;5089650;28;20372;-72
2021/08/22 07:09:22;;;;;;;1.70;1.40;;;;;;;16.42;70.63;101339.41;5090627;28;20062;-70
2021/08/22 07:11:48;;;;;;;5.53;1.50;;;;;;;16.19;71.13;101331.41;5089711;28;20169;-69
2021/08/22 07:14:13;;;;;;;4.63;1.40;;;;;;;16.31;71.31;101346.09;5090274;28;20433;-69
2021/08/22 07:16:40;;;;;;;2.25;1.73;;;;;;;16.37;71.25;101342.66;5089379;28;20698;-72
2021/08/22 07:19:06;;;;;;;3.97;1.55;;;;;;;16.61;70.52;101343.38;5090490;28;20032;-72
2021/08/22 07:21:32;;;;;;;3.95;1.83;;;;;;;16.68;69.97;101334.34;5090501;28;20059;-72
2021/08/22 07:23:57;;;;;;;3.33;1.45;;;;;;;16.53;69.93;101335.38;5089426;28;20441;-72
2021/08/22 07:26:22;;;;;;;2.57;1.67;;;;;;;16.57;71.08;101344.78;5088429;28;20038;-72
2021/08/22 07:28:48;;;;;;;4.27;2.70;;;;;;;16.81;69.25;101346.34;5090213;28;20123;-69
2021/08/22 07:31:15;;;;;;;4.50;2.00;;;;;;;16.84;69.46;101337.91;5090463;28;20043;-69
2021/08/22 07:33:40;;;;;;;3.30;1.80;;;;;;;17.23;68.95;101340.22;5090268;28;20110;-69
2021/08/22 07:36:06;;;;;;;2.70;1.65;;;;;;;17.16;68.35;101342.00;5089561;28;20044;-72
2021/08/22 07:38:32;;;;;;;6.53;2.23;;;;;;;17.42;68.33;101341.44;5090365;28;20031;-72
2021/08/22 07:40:57;;;;;;;4.55;2.25;;;;;;;17.05;68.07;101340.63;5089296;28;20036;-72
2021/08/22 07:43:23;;;;;;;3.47;2.33;;;;;;;16.94;68.66;101338.44;5090666;28;20050;-72
2021/08/22 07:45:48;;;;;;;3.93;2.30;;;;;;;16.85;69.20;101348.47;5088558;28;20067;-72
2021/08/22 07:48:13;;;;;;;8.53;2.93;;;;;;;16.88;68.73;101340.03;5090089;28;20496;-72
2021/08/22 07:50:39;;;;;;;2.43;1.87;;;;;;;17.02;69.42;101341.03;5088867;28;20480;-69
2021/08/22 07:53:04;;;;;;;2.27;2.00;;;;;;;16.76;69.82;101341.50;5089810;28;20040;-72
2021/08/22 07:55:30;;;;;;;5.93;1.80;;;;;;;16.90;71.10;101356.00;5089685;28;20036;-72
2021/08/22 07:57:55;;;;;;;5.37;2.47;;;;;;;16.88;70.01;101344.59;5089529;28;20032;-72
2021/08/22 08:00:21;;;;;;;2.27;1.90;;;;;;;16.81;69.76;101352.59;5089615;28;20281;-72
2021/08/22 08:02:47;;;;;;;4.97;1.73;;;;;;;16.73;70.28;101352.66;5089658;28;20028;-72
2021/08/22 08:05:12;;;;;;;7.37;1.93;;;;;;;16.54;70.51;101348.69;5089401;28;20514;-72
2021/08/22 08:07:38;;;;;;;2.17;1.53;;;;;;;16.73;69.79;101358.06;5088184;28;20067;-72
2021/08/22 08:10:05;;;;;;;4.85;1.52;;;;;;;16.58;69.80;101349.16;5088435;28;20028;-72
2021/08/22 08:12:31;;;;;;;3.55;1.70;;;;;;;16.65;68.71;101350.09;5089105;28;20136;-72
2021/08/22 08:14:57;;;;;;;3.93;1.60;;;;;;;16.73;69.89;101358.06;5089476;28;20119;-72
2021/08/22 08:17:23;;;;;;;3.45;1.67;;;;;;;16.50;69.91;101349.25;5088112;28;20028;-72
2021/08/22 08:19:48;;;;;;;3.83;1.55;;;;;;;16.48;69.76;101349.44;5088436;28;20043;-72
2021/08/22 08:22:14;;;;;;;1.77;1.50;;;;;;;16.34;70.49;101352.97;5089012;28;20047;-72
2021/08/22 08:24:39;;;;;;;3.37;1.87;;;;;;;16.21;71.14;101354.44;5088204;28;20031;-72
2021/08/22 08:27:04;;;;;;;4.37;1.87;;;;;;;16.29;72.52;101358.91;5088727;28;20541;-72
2021/08/22 08:29:30;;;;;;;2.37;1.57;;;;;;;16.35;72.23;101355.47;5089193;28;20047;-72
2021/08/22 08:31:55;;;;;;;3.00;1.40;;;;;;;16.40;71.36;101363.00;5088906;28;20043;-72
2021/08/22 08:34:20;;;;;;;4.23;1.90;;;;;;;16.30;71.60;101349.00;5088784;28;20036;-72
2021/08/22 08:36:46;;;;;;;4.67;1.50;;;;;;;16.40;72.00;101357.63;5087632;28;20050;-72
2021/08/22 08:39:11;;;;;;;4.33;1.40;;;;;;;16.35;71.39;101366.25;5089174;28;20031;-72
2021/08/22 08:41:37;;;;;;;4.23;1.53;;;;;;;16.30;71.87;101357.06;5087858;28;20061;-72
2021/08/22 08:44:04;;;;;;;4.90;1.63;;;;;;;16.21;72.86;101369.78;5087070;28;20063;-72
2021/08/22 08:46:32;;;;;;;4.45;1.73;;;;;;;16.21;72.57;101362.53;5088580;28;20941;-72
2021/08/22 08:49:06;;;;;;;2.22;1.55;;;;;;;16.22;72.29;101355.28;5070485;28;20047;-72
2021/08/22 08:51:52;;;;;;;1.73;1.30;;;;;;;16.33;72.46;101356.69;5088779;28;20075;-72
2021/08/22 08:54:26;;;;;;;;;;;;;;;16.50;72.67;101365.41;5088975;28;20032;-72
2021/08/22 08:56:52;;;;;;;4.07;2.17;;;;;;;16.37;73.20;101361.53;5088438;28;19923;-72
2021/08/22 08:59:18;;;;;;;3.23;1.50;;;;;;;16.35;72.82;101360.88;5087462;28;20023;-69
2021/08/22 09:01:43;;;;;;;5.55;1.60;;;;;;;16.38;73.04;101363.19;5088561;28;20055;-70
2021/08/22 09:04:27;;;;;;;5.93;1.80;;;;;;;16.34;70.62;101359.22;5088290;28;20536;-72
2021/08/22 09:07:32;;;;;;;2.85;1.40;;;;;;;16.22;71.76;101371.44;5088339;28;20036;-69
2021/08/22 09:10:35;;;;;;;2.78;1.17;;;;;;;16.16;72.12;101372.19;5088174;28;20131;-72
2021/08/22 09:13:57;;;;;;;3.30;1.40;;;;;;;16.15;72.54;101375.91;5088414;28;20509;-69
2021/08/22 09:17:01;;;;;;;2.40;1.70;;;;;;;16.32;73.27;101388.19;5048932;28;20528;-72
2021/08/22 09:19:55;;;;;;;2.33;1.30;;;;;;;16.07;71.69;101384.06;5065877;28;20093;-71
2021/08/22 09:22:45;;;;;;;2.70;1.40;;;;;;;16.23;73.16;101375.84;5088226;28;20046;-72
2021/08/22 09:25:48;;;;;;;6.82;1.90;;;;;;;16.37;73.97;101385.78;5087990;28;20051;-71
2021/08/22 09:28:51;;;;;;;3.00;1.20;;;;;;;16.45;72.37;101382.97;5087285;28;20487;-72
2021/08/22 09:31:54;;;;;;;6.22;1.55;;;;;;;16.29;72.40;101391.25;5087231;28;20105;-72
2021/08/22 09:34:47;;;;;;;2.00;1.10;;;;;;;16.30;71.93;101395.63;5088004;28;20035;-72
2021/08/22 09:37:27;;;;;;;3.78;1.60;;;;;;;16.38;73.22;101395.53;5088087;28;20042;-72
2021/08/22 09:40:30;;;;;;;3.67;1.85;;;;;;;16.44;72.79;101389.41;5087999;28;20028;-70
2021/08/22 09:43:10;;;;;;;2.53;1.10;;;;;;;16.36;71.82;101399.44;5087130;28;20048;-69
2021/08/22 09:46:14;;;;;;;3.58;1.42;;;;;;;16.38;71.30;101400.91;5086742;28;20036;-71
2021/08/22 09:49:07;;;;;;;1.50;1.23;;;;;;;16.31;71.56;101399.97;5089267;28;20724;-72
2021/08/22 09:52:10;;;;;;;2.00;1.40;;;;;;;16.30;71.05;101406.41;5091080;28;20086;-72
2021/08/22 09:55:13;;;;;;;3.60;1.63;;;;;;;16.28;70.06;101400.34;5092017;28;20044;-72
2021/08/22 09:58:10;;;;;;;1.90;1.42;;;;;;;16.23;70.16;101405.47;5090877;28;20093;-72
2021/08/22 10:01:09;;;;;;;3.25;1.10;;;;;;;16.22;70.67;101414.56;5090949;28;20062;-72
2021/08/22 10:03:56;;;;;;;4.43;1.77;;;;;;;16.20;70.67;101412.06;5092018;28;20059;-72
2021/08/22 10:06:44;;;;;;;3.20;1.38;;;;;;;16.27;72.09;101401.34;5090471;28;20043;-71
2021/08/22 10:09:29;;;;;;;6.05;1.70;;;;;;;16.27;70.26;101405.91;5081152;28;20051;-72
2021/08/22 10:11:56;;;;;;;2.78;1.20;;;;;;;16.23;70.50;101406.28;5091632;28;20039;-71
2021/08/22 10:14:22;;;;;;;5.50;1.20;;;;;;;16.28;70.97;101407.59;5091567;28;20032;-72
2021/08/22 10:16:52;;;;;;;2.08;1.38;;;;;;;16.24;70.24;101396.34;5073462;28;20032;-69
2021/08/22 10:19:23;;;;;;;2.33;1.38;;;;;;;16.27;71.44;101405.91;5090937;28;20020;-72
2021/08/22 10:22:09;;;;;;;8.15;2.30;;;;;;;16.16;71.75;101404.53;5091209;28;20040;-72
2021/08/22 10:24:34;;;;;;;2.08;1.88;;;;;;;16.31;71.83;101413.44;5090423;28;20312;-72
2021/08/22 10:27:00;;;;;;;2.97;2.00;;;;;;;16.08;71.04;101404.59;5090181;28;20035;-72
2021/08/22 10:29:56;;;;;;;6.30;1.27;;;;;;;16.17;72.34;101407.00;5090502;28;20048;-72
2021/08/22 10:32:21;;;;;;;3.08;1.30;;;;;;;16.32;72.05;101404.38;5091115;28;20036;-72
2021/08/22 10:35:13;;;;;;;5.07;1.50;;;;;;;16.31;71.52;101408.06;5091391;28;20476;-72
2021/08/22 10:37:43;;;;;;;3.15;1.52;;;;;;;16.39;71.98;101405.28;5089841;28;20039;-72
2021/08/22 10:40:28;;;;;;;2.33;1.20;;;;;;;16.47;72.22;101409.75;5091410;28;20366;-72
2021/08/22 10:42:56;;;;;;;3.67;2.65;;;;;;;16.50;71.83;101411.25;5089700;28;20032;-72
2021/08/22 10:45:40;;;;;;;3.58;1.98;;;;;;;16.39;72.03;101410.69;5090049;28;20032;-72
2021/08/22 10:48:06;;;;;;;1.70;1.33;;;;;;;16.37;72.94;101411.91;5090599;28;20061;-72
2021/08/22 10:50:57;;;;;;;3.10;1.55;;;;;;;16.59;72.79;101410.13;5090152;28;20040;-72
2021/08/22 10:53:24;;;;;;;5.90;1.70;;;;;;;16.46;73.07;101414.31;5090552;28;20035;-72
2021/08/22 10:55:49;;;;;;;5.57;2.00;;;;;;;16.39;73.38;101407.16;5090698;28;20102;-69
2021/08/22 10:58:14;;;;;;;4.17;2.43;;;;;;;16.40;72.28;101406.97;5090410;28;20111;-69
2021/08/22 11:00:41;;;;;;;2.73;1.70;;;;;;;16.24;72.81;101402.56;5089602;28;20482;-69
2021/08/22 11:03:22;;;;;;;2.38;1.20;;;;;;;16.18;73.77;101408.72;5089558;28;20028;-72
2021/08/22 11:05:48;;;;;;;4.20;1.70;;;;;;;16.29;74.14;101398.50;5090483;28;20104;-69
2021/08/22 11:08:22;;;;;;;3.30;1.40;;;;;;;16.54;74.25;101407.16;5090523;28;20031;-69
2021/08/22 11:11:01;;;;;;;4.65;1.60;;;;;;;16.59;73.75;101410.97;5089733;28;20047;-69
2021/08/22 11:13:29;;;;;;;5.22;1.80;;;;;;;16.59;72.87;101399.34;5090461;28;20032;-72
2021/08/22 11:15:56;;;;;;;2.45;1.20;;;;;;;16.63;71.50;101406.03;5090346;28;20066;-71
2021/08/22 11:18:21;;;;;;;3.05;1.48;;;;;;;16.69;72.44;101399.88;5072621;28;20032;-71
2021/08/22 11:20:47;;;;;;;3.20;1.47;;;;;;;16.76;72.50;101408.06;5090520;28;20055;-72
2021/08/22 11:23:17;;;;;;;4.82;1.63;;;;;;;16.64;71.49;101402.31;5090394;28;20024;-69
2021/08/22 11:26:03;;;;;;;2.80;1.48;;;;;;;16.78;71.88;101414.13;5089012;28;20044;-69
2021/08/22 11:28:28;;;;;;;3.53;1.25;;;;;;;16.69;72.02;101399.88;5089146;28;20664;-69
2021/08/22 11:30:54;;;;;;;5.37;1.63;;;;;;;16.67;72.51;101404.66;5089275;28;20064;-72
2021/08/22 11:33:19;;;;;;;4.83;2.13;;;;;;;16.84;72.55;101398.06;5090368;28;20852;-72
2021/08/22 11:35:47;;;;;;;4.93;1.50;;;;;;;16.79;72.53;101407.75;5089774;28;20082;-71
2021/08/22 11:38:14;;;;;;;1.77;1.60;;;;;;;17.10;72.71;101407.50;5090584;28;20032;-72